Time;durP1;ratioP1;P1;durP2;ratioP2;P2;SDS_P1;SDS_P2;PMS_P1;PMS_P2;Temp;Humidity;BMP_temperature;BMP_pressure;BME280_temperature;BME280_humidity;BME280_pressure;Samples;Min_cycle;Max_cycle;Signal;HPM_P1;HPM_P2
2021/11/08 00:01:51;;;;;;;28.30;5.47;;;9.00;99.90;;;;;;5051417;28;20043;-71
2021/11/08 00:04:17;;;;;;;27.60;5.03;;;9.00;99.90;;;;;;5048545;28;20078;-72
2021/11/08 00:06:43;;;;;;;23.20;4.97;;;9.00;99.90;;;;;;5051092;28;20029;-71
2021/11/08 00:09:10;;;;;;;32.40;5.45;;;9.00;99.90;;;;;;5051561;28;20036;-71
2021/11/08 00:11:37;;;;;;;25.30;5.55;;;9.00;99.90;;;;;;5050196;28;20530;-71
2021/11/08 00:14:03;;;;;;;30.33;6.18;;;9.00;99.90;;;;;;5049382;28;20494;-72
2021/11/08 00:16:44;;;;;;;35.95;5.88;;;9.00;99.90;;;;;;5046464;28;20037;-71
2021/11/08 00:21:36;;;;;;;27.40;5.32;;;9.00;99.90;;;;;;5048590;28;20660;-72
2021/11/08 00:24:03;;;;;;;21.40;5.05;;;9.00;99.90;;;;;;5049490;28;20033;-71
2021/11/08 00:26:28;;;;;;;30.80;7.00;;;9.10;99.90;;;;;;5050478;28;20398;-71
2021/11/08 00:28:54;;;;;;;27.52;5.60;;;9.00;99.90;;;;;;5049317;28;20021;-71
2021/11/08 00:31:20;;;;;;;25.48;5.72;;;9.00;99.90;;;;;;5049587;28;20043;-72
2021/11/08 00:33:46;;;;;;;27.27;5.43;;;9.00;99.90;;;;;;5049124;28;20064;-71
2021/11/08 00:36:12;;;;;;;26.88;5.53;;;9.00;99.90;;;;;;5048331;28;20033;-71
2021/11/08 00:38:38;;;;;;;33.85;5.20;;;9.00;99.90;;;;;;5052247;28;20383;-72
2021/11/08 00:41:04;;;;;;;26.15;4.70;;;9.00;99.90;;;;;;5050521;28;20040;-71
2021/11/08 00:43:30;;;;;;;16.50;4.15;;;9.00;99.90;;;;;;5047641;28;20032;-72
2021/11/08 00:45:56;;;;;;;20.40;4.05;;;9.00;99.90;;;;;;5047576;28;20521;-71
2021/11/08 00:48:25;;;;;;;20.10;4.60;;;9.00;99.90;;;;;;5049417;28;20044;-71
2021/11/08 00:50:53;;;;;;;17.50;4.13;;;9.00;99.90;;;;;;5049748;28;20057;-71
2021/11/08 00:53:19;;;;;;;21.63;4.30;;;9.00;99.90;;;;;;5045817;28;20376;-72
2021/11/08 00:55:45;;;;;;;24.58;5.00;;;9.00;99.90;;;;;;5049423;28;20025;-71
2021/11/08 00:58:22;;;;;;;15.30;4.20;;;8.90;99.90;;;;;;5049270;28;20032;-72
2021/11/08 01:00:49;;;;;;;22.17;4.53;;;8.90;99.90;;;;;;5051154;28;20403;-72
2021/11/08 01:03:18;;;;;;;22.45;4.90;;;9.00;99.90;;;;;;5049979;28;20029;-71
2021/11/08 01:05:44;;;;;;;22.35;5.38;;;9.00;99.90;;;;;;5037639;28;20036;-72
2021/11/08 01:08:10;;;;;;;14.05;4.20;;;9.00;99.90;;;;;;5049659;28;20086;-72
2021/11/08 01:10:35;;;;;;;17.90;4.72;;;9.00;99.90;;;;;;5050264;28;20572;-72
2021/11/08 01:13:01;;;;;;;22.80;4.70;;;9.00;99.90;;;;;;5047317;28;20041;-71
2021/11/08 01:15:27;;;;;;;19.20;4.05;;;9.00;99.90;;;;;;5050416;28;20033;-72
2021/11/08 01:17:53;;;;;;;21.90;4.38;;;9.00;99.90;;;;;;5049017;28;20075;-71
2021/11/08 01:20:27;;;;;;;13.30;3.20;;;9.00;99.90;;;;;;5049454;28;20102;-71
2021/11/08 01:22:52;;;;;;;18.48;3.40;;;9.00;99.90;;;;;;5039023;28;20035;-71
2021/11/08 01:25:18;;;;;;;17.67;3.60;;;9.00;99.90;;;;;;5049429;28;20120;-71
2021/11/08 01:27:45;;;;;;;14.60;2.92;;;8.90;99.90;;;;;;5050293;28;20021;-71
2021/11/08 01:30:20;;;;;;;9.65;2.75;;;9.00;99.90;;;;;;5054629;28;20373;-71
2021/11/08 01:33:08;;;;;;;15.63;3.00;;;9.00;99.90;;;;;;5050878;28;20044;-72
2021/11/08 01:35:44;;;;;;;12.68;2.38;;;9.00;99.90;;;;;;5048228;28;20079;-71
2021/11/08 01:38:23;;;;;;;8.95;2.35;;;9.00;99.90;;;;;;5049294;28;20029;-71
2021/11/08 01:40:50;;;;;;;10.18;2.95;;;9.00;99.90;;;;;;5048462;28;20450;-71
2021/11/08 01:43:16;;;;;;;10.88;2.92;;;9.00;99.90;;;;;;5049780;28;20029;-73
2021/11/08 01:45:41;;;;;;;13.48;3.10;;;9.00;99.90;;;;;;5037866;28;20075;-70
2021/11/08 01:48:09;;;;;;;13.57;2.75;;;9.00;99.90;;;;;;5049549;28;20029;-72
2021/11/08 01:50:36;;;;;;;14.60;3.13;;;9.00;99.90;;;;;;5037530;28;20100;-72
2021/11/08 01:53:03;;;;;;;15.48;3.88;;;9.00;99.90;;;;;;5048079;28;20526;-71
2021/11/08 01:55:29;;;;;;;13.90;3.03;;;9.10;99.90;;;;;;5049877;28;20056;-71
2021/11/08 01:57:57;;;;;;;8.73;3.05;;;9.00;99.90;;;;;;5049426;28;20028;-71
2021/11/08 02:00:26;;;;;;;15.85;3.97;;;9.00;99.90;;;;;;5049454;28;20033;-71
2021/11/08 02:02:52;;;;;;;16.33;3.97;;;9.00;99.90;;;;;;5049380;28;20025;-71
2021/11/08 02:05:18;;;;;;;15.95;4.00;;;9.00;99.90;;;;;;5049318;28;20592;-71
2021/11/08 02:07:45;;;;;;;11.45;3.20;;;9.00;99.90;;;;;;5049198;28;20597;-72
2021/11/08 02:10:12;;;;;;;13.10;3.60;;;9.10;99.90;;;;;;5048918;28;20036;-71
2021/11/08 02:12:39;;;;;;;18.75;3.88;;;9.10;99.90;;;;;;5049074;28;20025;-71
2021/11/08 02:15:08;;;;;;;18.10;3.78;;;9.10;99.90;;;;;;5049925;28;20554;-71
2021/11/08 02:17:34;;;;;;;16.10;4.20;;;9.00;99.90;;;;;;5047241;28;20113;-72
2021/11/08 02:20:18;;;;;;;13.32;3.33;;;9.10;99.90;;;;;;5038020;28;20104;-72
2021/11/08 02:22:45;;;;;;;21.85;4.63;;;9.00;99.90;;;;;;5038037;28;20395;-71
2021/11/08 02:25:12;;;;;;;14.63;3.60;;;9.10;99.90;;;;;;5048830;28;21717;-71
2021/11/08 02:27:42;;;;;;;18.10;3.50;;;9.00;99.90;;;;;;5049860;28;20067;-72
2021/11/08 02:30:09;;;;;;;17.50;3.83;;;9.00;99.90;;;;;;5048372;28;20082;-71
2021/11/08 02:32:35;;;;;;;19.27;4.18;;;9.00;99.90;;;;;;5049221;28;20036;-71
2021/11/08 02:35:02;;;;;;;12.95;2.80;;;9.00;99.90;;;;;;5048318;28;20028;-71
2021/11/08 02:37:28;;;;;;;23.48;3.40;;;8.90;99.90;;;;;;5049239;28;20037;-72
2021/11/08 02:39:55;;;;;;;15.23;2.65;;;8.90;99.90;;;;;;5048593;28;20029;-72
2021/11/08 02:42:21;;;;;;;13.13;2.45;;;8.90;99.90;;;;;;5049296;28;20032;-71
2021/11/08 02:44:47;;;;;;;17.10;2.78;;;8.90;99.90;;;;;;5047009;28;20469;-71
2021/11/08 02:47:14;;;;;;;20.35;4.10;;;9.00;99.90;;;;;;5037313;28;20033;-71
2021/11/08 02:49:44;;;;;;;15.15;2.72;;;8.90;99.90;;;;;;5048326;28;20116;-71
2021/11/08 02:52:10;;;;;;;15.50;3.05;;;8.90;99.90;;;;;;5047064;28;20039;-71
2021/11/08 02:54:42;;;;;;;19.10;3.35;;;8.90;99.90;;;;;;5049196;28;20033;-71
2021/11/08 02:57:09;;;;;;;11.60;2.42;;;9.00;99.90;;;;;;5048814;28;20041;-72
2021/11/08 02:59:36;;;;;;;16.20;3.05;;;9.00;99.90;;;;;;5046787;28;20067;-72
2021/11/08 03:02:03;;;;;;;13.98;2.30;;;8.90;99.90;;;;;;5049242;28;20029;-71
2021/11/08 03:04:44;;;;;;;12.82;2.85;;;8.90;99.90;;;;;;5047963;28;20041;-72
2021/11/08 03:07:11;;;;;;;11.10;1.90;;;8.90;99.90;;;;;;5047822;28;20037;-71
2021/11/08 03:10:08;;;;;;;9.43;2.30;;;8.90;99.90;;;;;;5047987;28;20032;-71
2021/11/08 03:12:37;;;;;;;11.20;2.63;;;8.90;99.90;;;;;;5025316;28;20118;-71
2021/11/08 03:15:11;;;;;;;16.45;2.80;;;8.90;99.90;;;;;;5047744;28;20025;-71
2021/11/08 03:17:47;;;;;;;10.30;2.40;;;8.90;99.90;;;;;;5048092;28;20545;-71
2021/11/08 03:20:17;;;;;;;15.43;2.85;;;8.90;99.90;;;;;;5048784;28;20029;-70
2021/11/08 03:22:53;;;;;;;10.82;2.63;;;8.80;99.90;;;;;;5043919;28;20547;-71
2021/11/08 03:28:01;;;;;;;11.85;2.55;;;8.80;99.90;;;;;;5050381;28;20480;-71
2021/11/08 03:30:50;;;;;;;12.95;2.80;;;8.80;99.90;;;;;;5049415;28;20135;-71
2021/11/08 03:33:17;;;;;;;9.43;2.58;;;8.80;99.90;;;;;;5050282;28;20099;-71
2021/11/08 03:35:43;;;;;;;20.83;3.22;;;8.70;99.90;;;;;;5052513;28;20078;-71
2021/11/08 03:38:13;;;;;;;18.48;3.20;;;8.80;99.90;;;;;;5052436;28;20064;-71
2021/11/08 03:40:42;;;;;;;8.35;2.42;;;8.80;99.90;;;;;;5039678;28;20021;-71
2021/11/08 03:43:12;;;;;;;11.13;2.35;;;8.80;99.90;;;;;;5052653;28;20040;-71
2021/11/08 03:45:39;;;;;;;11.02;2.65;;;8.80;99.90;;;;;;5050253;28;20122;-71
2021/11/08 03:48:07;;;;;;;8.57;2.78;;;8.70;99.90;;;;;;5051340;28;20059;-72
2021/11/08 03:50:33;;;;;;;10.52;2.72;;;8.70;99.90;;;;;;5051840;28;20705;-72
2021/11/08 03:52:59;;;;;;;10.73;2.90;;;8.70;99.90;;;;;;5049928;28;20017;-72
2021/11/08 03:55:26;;;;;;;8.23;2.22;;;8.70;99.90;;;;;;5051154;28;20172;-72
2021/11/08 03:57:52;;;;;;;15.52;2.72;;;8.70;99.90;;;;;;5049555;28;20028;-71
2021/11/08 04:00:20;;;;;;;14.07;2.83;;;8.70;99.90;;;;;;5048455;28;20059;-71
2021/11/08 04:02:47;;;;;;;11.23;2.78;;;8.80;99.90;;;;;;5055373;28;20032;-72
2021/11/08 04:05:14;;;;;;;12.48;2.80;;;8.70;99.90;;;;;;5046906;28;20771;-72
2021/11/08 04:07:40;;;;;;;13.13;3.47;;;8.80;99.90;;;;;;5051043;28;20368;-72
2021/11/08 04:10:09;;;;;;;15.02;4.05;;;8.80;99.90;;;;;;5037674;28;20029;-72
2021/11/08 04:12:36;;;;;;;10.55;3.17;;;8.80;99.90;;;;;;5050028;28;20503;-73
2021/11/08 04:15:06;;;;;;;20.55;3.63;;;8.80;99.90;;;;;;5049553;28;20048;-72
2021/11/08 04:17:33;;;;;;;17.67;3.67;;;8.80;99.90;;;;;;5050407;28;20076;-71
2021/11/08 04:19:59;;;;;;;15.93;3.17;;;8.70;99.90;;;;;;5051028;28;20040;-71
2021/11/08 04:22:24;;;;;;;22.45;4.18;;;8.70;99.90;;;;;;5051557;28;20033;-72
2021/11/08 04:24:52;;;;;;;23.42;3.75;;;8.70;99.90;;;;;;5040679;28;20380;-72
2021/11/08 04:27:18;;;;;;;20.73;3.40;;;8.70;99.90;;;;;;5050511;28;20033;-72
2021/11/08 04:29:43;;;;;;;15.93;4.45;;;8.70;99.90;;;;;;5050369;28;20393;-71
2021/11/08 04:32:09;;;;;;;23.85;4.65;;;8.60;99.90;;;;;;5050358;28;20057;-72
2021/11/08 04:34:53;;;;;;;21.38;4.35;;;8.70;99.90;;;;;;5049963;28;20033;-72
2021/11/08 04:37:49;;;;;;;18.85;4.00;;;8.60;99.90;;;;;;5050080;28;20025;-71
2021/11/08 04:40:24;;;;;;;20.60;4.43;;;8.60;99.90;;;;;;5050159;28;20029;-71
2021/11/08 04:43:06;;;;;;;12.35;2.80;;;8.60;99.90;;;;;;5051471;28;20087;-72
2021/11/08 04:46:09;;;;;;;16.55;2.92;;;8.60;99.90;;;;;;5047619;28;20029;-72
2021/11/08 04:51:10;;;;;;;18.30;3.05;;;8.60;99.90;;;;;;5048598;28;20057;-72
2021/11/08 04:56:41;;;;;;;19.83;3.25;;;8.60;99.90;;;;;;5049221;28;20108;-71
2021/11/08 05:24:00;;;;;;;15.77;3.30;;;8.50;99.90;;;;;;5047788;28;20041;-71
2021/11/08 05:31:41;;;;;;;14.50;2.90;;;8.50;99.90;;;;;;5047719;28;20471;-71
2021/11/08 05:34:07;;;;;;;17.50;3.72;;;8.50;99.90;;;;;;5048487;28;20032;-71
2021/11/08 05:36:34;;;;;;;11.52;2.70;;;8.40;99.90;;;;;;5047914;28;20047;-72
2021/11/08 05:39:04;;;;;;;20.33;2.72;;;8.40;99.90;;;;;;5049557;28;20032;-72
2021/11/08 05:41:30;;;;;;;16.63;2.88;;;8.50;99.90;;;;;;5038195;28;20487;-72
2021/11/08 05:43:55;;;;;;;14.85;3.05;;;8.50;99.90;;;;;;5047020;28;20025;-72
2021/11/08 05:46:21;;;;;;;18.25;3.58;;;8.50;99.90;;;;;;5045044;28;20021;-71
2021/11/08 05:48:47;;;;;;;16.45;2.45;;;8.50;99.90;;;;;;5050668;28;20021;-71
2021/11/08 05:51:13;;;;;;;15.07;2.50;;;8.40;99.90;;;;;;5050360;28;20655;-73
2021/11/08 05:53:43;;;;;;;10.35;2.42;;;8.40;99.90;;;;;;5036217;28;20098;-72
2021/11/08 05:56:21;;;;;;;15.02;2.20;;;8.40;99.90;;;;;;5049624;28;20029;-72
2021/11/08 06:50:48;;;;;;;15.13;2.53;;;7.90;99.90;;;;;;5048659;28;20032;-73
2021/11/08 06:53:18;;;;;;;18.35;3.15;;;7.90;99.90;;;;;;5036819;28;20029;-74
2021/11/08 06:55:51;;;;;;;10.52;2.25;;;7.90;99.90;;;;;;5047248;28;20025;-74
2021/11/08 06:58:19;;;;;;;14.85;2.10;;;8.00;99.90;;;;;;5050275;28;20033;-74
2021/11/08 07:00:47;;;;;;;17.65;2.80;;;8.00;99.90;;;;;;5048669;28;20054;-73
2021/11/08 07:03:13;;;;;;;16.55;2.35;;;8.10;99.90;;;;;;5050226;28;20029;-73
2021/11/08 07:05:39;;;;;;;12.40;2.75;;;8.10;99.90;;;;;;5048702;28;20321;-74
2021/11/08 07:08:06;;;;;;;14.30;3.22;;;8.00;99.90;;;;;;5048046;28;20483;-74
2021/11/08 07:10:33;;;;;;;12.70;2.00;;;8.10;99.90;;;;;;5048420;28;20025;-73
2021/11/08 07:12:59;;;;;;;19.77;3.60;;;8.20;99.90;;;;;;5045508;28;20091;-74
2021/11/08 07:15:26;;;;;;;16.42;2.63;;;8.20;99.90;;;;;;5037828;28;20025;-79
2021/11/08 07:17:52;;;;;;;17.98;3.00;;;8.10;99.90;;;;;;5053051;28;20028;-75
2021/11/08 07:20:19;;;;;;;17.92;2.70;;;8.10;99.90;;;;;;5051215;28;20013;-80
2021/11/08 07:22:46;;;;;;;13.52;2.40;;;8.10;99.90;;;;;;5042819;28;20399;-80
2021/11/08 07:25:11;;;;;;;17.95;3.63;;;8.00;99.90;;;;;;5039011;28;20035;-77
2021/11/08 07:27:38;;;;;;;14.15;2.45;;;8.00;99.90;;;;;;5038212;28;20461;-78
2021/11/08 07:30:05;;;;;;;15.57;2.28;;;8.00;99.90;;;;;;5052628;28;20040;-79
2021/11/08 07:32:31;;;;;;;14.18;2.30;;;8.00;99.90;;;;;;5042366;28;20021;-81
2021/11/08 07:34:58;;;;;;;15.52;2.33;;;8.00;99.90;;;;;;5053355;28;20041;-81
2021/11/08 07:37:23;;;;;;;16.38;2.70;;;8.00;99.90;;;;;;5055313;28;20479;-80
2021/11/08 07:39:50;;;;;;;17.02;2.83;;;8.00;99.90;;;;;;5044889;28;20029;-81
2021/11/08 07:42:17;;;;;;;14.82;2.30;;;8.00;99.90;;;;;;5055596;28;20039;-81
2021/11/08 07:44:46;;;;;;;17.00;2.97;;;7.90;99.90;;;;;;5042061;28;20144;-80
2021/11/08 07:47:13;;;;;;;13.98;2.45;;;8.00;99.90;;;;;;5053136;28;20049;-81
2021/11/08 07:49:39;;;;;;;12.25;2.95;;;8.00;99.90;;;;;;5025617;28;20117;-82
2021/11/08 07:52:05;;;;;;;12.90;2.65;;;8.10;99.90;;;;;;5047165;28;20514;-78
2021/11/08 07:54:32;;;;;;;18.25;2.80;;;8.00;99.90;;;;;;5045792;28;20032;-79
2021/11/08 07:57:01;;;;;;;16.73;2.92;;;8.00;99.90;;;;;;5044918;28;20025;-80
2021/11/08 07:59:27;;;;;;;16.15;2.70;;;8.00;99.90;;;;;;5048476;28;20035;-72
2021/11/08 08:01:53;;;;;;;16.30;2.97;;;7.90;99.90;;;;;;5047219;28;20032;-72
2021/11/08 08:04:19;;;;;;;13.23;2.40;;;7.90;99.90;;;;;;5049385;28;20108;-72
2021/11/08 08:06:46;;;;;;;11.63;2.78;;;7.90;99.90;;;;;;5041172;28;20551;-71
2021/11/08 08:09:12;;;;;;;11.63;2.83;;;8.00;99.90;;;;;;5052071;28;20029;-74
2021/11/08 08:11:38;;;;;;;13.23;2.10;;;8.10;99.90;;;;;;5053303;28;20021;-71
2021/11/08 08:14:04;;;;;;;14.15;2.10;;;8.00;99.90;;;;;;5052413;28;20025;-71
2021/11/08 08:16:30;;;;;;;7.75;2.38;;;8.10;99.90;;;;;;5038467;28;20039;-72
2021/11/08 08:18:56;;;;;;;10.43;2.13;;;8.00;99.90;;;;;;5052623;28;20029;-70
2021/11/08 08:21:22;;;;;;;20.38;3.13;;;8.00;99.90;;;;;;5043521;28;20032;-71
2021/11/08 08:23:54;;;;;;;20.80;3.38;;;8.10;99.90;;;;;;5050832;28;20025;-70
2021/11/08 08:26:23;;;;;;;14.35;2.20;;;8.00;99.90;;;;;;5056237;28;20025;-71
2021/11/08 08:28:49;;;;;;;11.32;2.67;;;8.00;99.90;;;;;;5051833;28;20078;-71
2021/11/08 08:31:15;;;;;;;10.88;2.13;;;8.00;99.90;;;;;;5051916;28;20151;-71
2021/11/08 08:33:41;;;;;;;24.50;3.42;;;8.10;99.90;;;;;;5042159;28;20493;-71
2021/11/08 08:36:06;;;;;;;10.80;2.47;;;8.10;99.90;;;;;;5052552;28;20029;-71
2021/11/08 08:38:32;;;;;;;13.18;2.08;;;8.20;99.90;;;;;;5050864;28;20103;-70
2021/11/08 08:40:58;;;;;;;16.27;2.47;;;8.30;99.90;;;;;;5050856;28;20113;-71
2021/11/08 08:43:26;;;;;;;10.27;2.85;;;8.20;99.90;;;;;;5051995;28;20608;-71
2021/11/08 08:45:52;;;;;;;18.42;2.80;;;8.20;99.90;;;;;;5052688;28;20059;-72
2021/11/08 08:48:18;;;;;;;14.75;2.08;;;8.20;99.90;;;;;;5053232;28;20032;-71
2021/11/08 08:50:45;;;;;;;21.65;3.03;;;8.20;99.90;;;;;;5052460;28;20086;-72
2021/11/08 08:53:11;;;;;;;14.90;2.42;;;8.20;99.90;;;;;;5042754;28;20036;-72
2021/11/08 08:55:44;;;;;;;13.75;2.67;;;8.20;99.90;;;;;;5048181;28;20530;-72
2021/11/08 08:58:11;;;;;;;18.38;3.10;;;8.30;99.90;;;;;;5049542;28;20029;-70
2021/11/08 09:00:40;;;;;;;12.70;2.97;;;8.20;99.90;;;;;;5049461;28;20111;-70
2021/11/08 09:03:07;;;;;;;16.05;2.63;;;8.30;99.90;;;;;;5051649;28;20029;-70
2021/11/08 09:05:33;;;;;;;15.13;2.35;;;8.30;99.90;;;;;;5051405;28;20118;-71
2021/11/08 09:07:59;;;;;;;9.02;2.33;;;8.30;99.90;;;;;;5050350;28;20103;-70
2021/11/08 09:10:28;;;;;;;12.57;2.72;;;8.30;99.90;;;;;;5048966;28;20371;-72
2021/11/08 09:12:55;;;;;;;15.50;2.55;;;8.30;99.90;;;;;;5051326;28;20047;-71
2021/11/08 09:15:22;;;;;;;8.73;2.10;;;8.30;99.90;;;;;;5052291;28;20038;-70
2021/11/08 09:17:48;;;;;;;12.35;2.10;;;8.30;99.90;;;;;;5024300;28;20111;-71
2021/11/08 09:20:14;;;;;;;13.75;2.08;;;8.30;99.90;;;;;;5050404;28;20072;-70
2021/11/08 09:22:43;;;;;;;7.60;2.00;;;8.50;99.90;;;;;;5049893;28;20068;-71
2021/11/08 09:25:10;;;;;;;10.85;2.58;;;8.70;99.90;;;;;;5039171;28;20394;-72
2021/11/08 09:27:37;;;;;;;7.70;1.90;;;8.80;99.90;;;;;;5049470;28;20094;-71
2021/11/08 09:30:09;;;;;;;10.48;1.92;;;8.80;99.90;;;;;;5049908;28;20017;-71
2021/11/08 09:32:35;;;;;;;15.02;1.95;;;8.90;99.90;;;;;;5049142;28;20082;-71
2021/11/08 09:35:02;;;;;;;16.30;2.75;;;9.00;99.90;;;;;;5050020;28;20028;-71
2021/11/08 09:37:32;;;;;;;9.60;2.15;;;9.00;99.90;;;;;;5049832;28;20930;-71
2021/11/08 09:39:59;;;;;;;10.32;2.17;;;9.10;99.90;;;;;;5047862;28;20033;-71
2021/11/08 09:42:28;;;;;;;10.57;1.60;;;9.10;99.90;;;;;;5048810;28;20113;-71
2021/11/08 09:44:54;;;;;;;10.77;1.63;;;9.20;99.90;;;;;;5037982;28;20040;-71
2021/11/08 09:47:20;;;;;;;10.93;2.42;;;9.40;99.90;;;;;;5037924;28;20486;-71
2021/11/08 09:49:51;;;;;;;11.18;1.67;;;9.50;99.90;;;;;;5049993;28;20024;-78
2021/11/08 09:52:17;;;;;;;14.15;2.00;;;9.50;99.90;;;;;;5053285;28;20513;-71
2021/11/08 09:54:43;;;;;;;13.43;1.90;;;9.60;99.90;;;;;;5048884;28;20411;-72
2021/11/08 09:57:11;;;;;;;9.10;1.65;;;9.60;99.90;;;;;;5050702;28;20155;-71
2021/11/08 09:59:37;;;;;;;11.27;2.05;;;9.50;99.90;;;;;;5050910;28;20036;-72
2021/11/08 10:02:11;;;;;;;11.38;2.20;;;9.50;99.90;;;;;;5039500;28;20025;-72
2021/11/08 10:04:37;;;;;;;11.80;3.17;;;9.50;99.90;;;;;;5049767;28;20036;-71
2021/11/08 10:07:04;;;;;;;14.15;2.35;;;9.40;99.90;;;;;;5050483;28;20044;-72
2021/11/08 10:09:30;;;;;;;15.90;2.42;;;9.50;99.90;;;;;;5039449;28;20104;-71
2021/11/08 10:11:56;;;;;;;11.52;2.13;;;9.40;99.90;;;;;;5050232;28;20140;-71
2021/11/08 10:14:22;;;;;;;11.90;2.45;;;9.40;99.90;;;;;;5052229;28;20025;-71
2021/11/08 10:16:51;;;;;;;13.35;2.47;;;9.50;99.90;;;;;;5051668;28;20548;-71
2021/11/08 10:19:22;;;;;;;10.88;2.35;;;9.40;99.90;;;;;;5051510;28;20045;-71
2021/11/08 10:21:51;;;;;;;16.48;2.45;;;9.40;99.90;;;;;;5049679;28;20055;-71
2021/11/08 10:24:29;;;;;;;11.40;2.75;;;9.30;99.90;;;;;;5049962;28;20419;-71
2021/11/08 10:26:58;;;;;;;15.07;2.78;;;9.30;99.90;;;;;;5050893;28;20498;-71
2021/11/08 10:29:26;;;;;;;12.02;2.03;;;9.20;99.90;;;;;;5050026;28;20028;-71
2021/11/08 10:31:55;;;;;;;11.65;2.20;;;9.20;99.90;;;;;;5050627;28;20025;-71
2021/11/08 10:34:23;;;;;;;11.07;2.50;;;9.20;99.90;;;;;;5034523;28;20033;-72
2021/11/08 10:37:07;;;;;;;9.85;1.85;;;9.20;99.90;;;;;;5043161;28;20372;-71
2021/11/08 10:39:35;;;;;;;10.88;2.42;;;9.40;99.90;;;;;;5050695;28;20553;-71
2021/11/08 10:42:01;;;;;;;16.35;2.75;;;9.40;99.90;;;;;;5047776;28;20025;-72
2021/11/08 10:44:28;;;;;;;15.50;2.63;;;9.40;99.90;;;;;;5045173;28;20036;-71
2021/11/08 10:47:01;;;;;;;16.67;2.70;;;9.50;99.90;;;;;;5051099;28;20051;-73
2021/11/08 10:49:30;;;;;;;13.65;2.90;;;9.50;99.90;;;;;;5050049;28;20029;-73
2021/11/08 10:51:59;;;;;;;13.63;2.88;;;9.50;99.90;;;;;;5049748;28;20103;-71
2021/11/08 10:54:27;;;;;;;12.07;2.83;;;9.50;99.90;;;;;;5051186;28;20519;-73
2021/11/08 10:56:56;;;;;;;16.02;2.67;;;9.50;99.90;;;;;;5049444;28;20029;-72
2021/11/08 10:59:30;;;;;;;9.43;1.98;;;9.50;99.90;;;;;;5049878;28;20079;-71
2021/11/08 11:02:01;;;;;;;14.63;2.53;;;9.50;99.90;;;;;;5048702;28;20471;-70
2021/11/08 11:04:31;;;;;;;16.77;3.58;;;9.50;99.90;;;;;;5051081;28;20036;-71
2021/11/08 11:06:56;;;;;;;18.38;3.28;;;9.50;99.90;;;;;;5050746;28;20080;-71
2021/11/08 11:09:26;;;;;;;17.58;3.25;;;9.40;99.90;;;;;;5050980;28;20060;-72
2021/11/08 11:12:09;;;;;;;14.00;3.03;;;9.40;99.90;;;;;;5048903;28;20021;-72
2021/11/08 11:14:46;;;;;;;13.63;2.80;;;9.40;99.90;;;;;;5049157;28;20029;-73
2021/11/08 11:17:24;;;;;;;16.95;3.33;;;9.40;99.90;;;;;;5050311;28;20112;-73
2021/11/08 11:20:05;;;;;;;12.52;2.63;;;9.30;99.90;;;;;;5050645;28;20046;-75
2021/11/08 11:22:33;;;;;;;17.38;3.65;;;9.30;99.90;;;;;;5049718;28;20068;-75
2021/11/08 11:24:59;;;;;;;16.00;3.08;;;9.30;99.90;;;;;;5050033;28;20086;-75
2021/11/08 11:27:24;;;;;;;18.50;3.22;;;9.30;99.90;;;;;;5050128;28;20498;-76
2021/11/08 11:29:51;;;;;;;16.00;3.05;;;9.40;99.90;;;;;;5050522;28;20104;-77
2021/11/08 11:32:20;;;;;;;21.25;3.83;;;9.40;99.90;;;;;;5049024;28;20457;-75
2021/11/08 11:34:46;;;;;;;18.05;3.55;;;9.40;99.90;;;;;;5038290;28;20025;-76
2021/11/08 11:37:17;;;;;;;17.25;4.53;;;9.30;99.90;;;;;;5045569;28;20593;-75
2021/11/08 11:39:43;;;;;;;13.60;3.13;;;9.40;99.90;;;;;;5046800;28;20055;-75
2021/11/08 11:42:09;;;;;;;11.45;2.75;;;9.40;99.90;;;;;;5050406;28;20391;-74
2021/11/08 11:44:35;;;;;;;18.15;3.22;;;9.40;99.90;;;;;;5050187;28;20075;-75
2021/11/08 11:47:01;;;;;;;13.93;3.42;;;9.40;99.90;;;;;;5048612;28;20025;-75
2021/11/08 11:49:28;;;;;;;11.32;2.90;;;9.40;99.90;;;;;;5040816;28;20029;-75
2021/11/08 11:51:59;;;;;;;7.05;2.45;;;9.40;99.90;;;;;;5042618;28;20543;-75
2021/11/08 11:54:30;;;;;;;13.27;2.92;;;9.40;99.90;;;;;;5040969;28;20029;-75
2021/11/08 11:56:57;;;;;;;11.82;2.72;;;9.50;99.90;;;;;;5051008;28;20029;-75
2021/11/08 11:59:24;;;;;;;17.33;3.85;;;9.50;99.90;;;;;;5051185;28;20029;-75
2021/11/08 12:01:50;;;;;;;15.05;3.47;;;9.50;99.90;;;;;;5041171;28;20033;-75
2021/11/08 12:04:17;;;;;;;13.02;3.53;;;9.50;99.90;;;;;;5041423;28;20372;-75
2021/11/08 12:06:47;;;;;;;13.05;3.03;;;9.50;99.90;;;;;;5052684;28;20025;-75
2021/11/08 12:09:19;;;;;;;11.27;3.22;;;9.50;99.90;;;;;;5041365;28;20041;-75
2021/11/08 12:11:48;;;;;;;11.93;3.03;;;9.50;99.90;;;;;;5052448;28;20025;-75
2021/11/08 12:14:18;;;;;;;13.55;2.90;;;9.50;99.90;;;;;;5051987;28;20542;-75
2021/11/08 12:17:14;;;;;;;14.82;3.08;;;9.50;99.90;;;;;;5051883;28;20028;-76
2021/11/08 12:19:42;;;;;;;15.57;3.50;;;9.50;99.90;;;;;;5051523;28;20036;-75
2021/11/08 12:22:15;;;;;;;16.75;3.28;;;9.50;99.90;;;;;;5041639;28;20041;-74
2021/11/08 12:24:43;;;;;;;12.93;2.85;;;9.60;99.90;;;;;;5052477;28;20533;-75
2021/11/08 12:27:11;;;;;;;15.55;2.92;;;9.60;99.90;;;;;;5052258;28;20087;-75
2021/11/08 12:29:52;;;;;;;15.75;3.03;;;9.60;99.90;;;;;;5051510;28;20032;-74
2021/11/08 12:32:19;;;;;;;10.45;2.63;;;9.60;99.90;;;;;;5038336;28;20536;-74
2021/11/08 12:34:52;;;;;;;15.98;2.70;;;9.50;99.90;;;;;;5041724;28;20096;-74
2021/11/08 12:37:20;;;;;;;9.73;3.17;;;9.50;99.90;;;;;;5051309;28;20116;-74
2021/11/08 12:39:58;;;;;;;16.88;2.50;;;9.60;99.90;;;;;;5050262;28;20049;-75
2021/11/08 12:42:24;;;;;;;9.02;2.60;;;9.60;99.90;;;;;;5051268;28;20494;-74
2021/11/08 12:44:51;;;;;;;14.07;3.85;;;9.60;99.90;;;;;;5051967;28;20079;-74
2021/11/08 12:47:28;;;;;;;6.93;1.92;;;9.70;99.90;;;;;;5050051;28;20052;-76
2021/11/08 12:49:55;;;;;;;6.15;1.98;;;9.70;99.90;;;;;;5051528;28;20029;-75
2021/11/08 12:52:27;;;;;;;9.18;2.75;;;9.70;99.90;;;;;;5050407;28;20032;-74
2021/11/08 12:55:05;;;;;;;144.13;70.07;;;9.70;99.90;;;;;;5038812;28;20021;-74
2021/11/08 12:57:32;;;;;;;18.80;9.65;;;9.70;99.90;;;;;;5051327;28;20029;-75
2021/11/08 13:00:03;;;;;;;113.50;61.78;;;9.70;99.90;;;;;;5048558;28;20025;-74
2021/11/08 13:02:33;;;;;;;13.07;4.80;;;9.70;99.90;;;;;;5051660;28;20033;-74
2021/11/08 13:05:02;;;;;;;13.27;2.92;;;9.70;99.90;;;;;;5040070;28;20086;-75
2021/11/08 13:07:39;;;;;;;8.88;2.50;;;9.70;99.90;;;;;;5052221;28;20037;-74
2021/11/08 13:10:18;;;;;;;7.20;2.60;;;9.70;99.90;;;;;;5049130;28;20525;-74
2021/11/08 13:12:44;;;;;;;9.25;2.70;;;9.70;99.90;;;;;;5051356;28;20063;-74
2021/11/08 13:15:19;;;;;;;11.13;2.35;;;9.70;99.90;;;;;;5051346;28;20029;-75
2021/11/08 13:18:00;;;;;;;8.55;2.15;;;9.70;99.90;;;;;;5052292;28;20112;-75
2021/11/08 13:20:29;;;;;;;13.18;3.05;;;9.70;99.90;;;;;;5050979;28;20029;-74
2021/11/08 13:22:59;;;;;;;4.93;1.63;;;9.80;99.90;;;;;;5051225;28;20048;-75
2021/11/08 13:25:37;;;;;;;5.88;1.60;;;9.90;99.90;;;;;;5050523;28;20057;-74
2021/11/08 13:28:10;;;;;;;6.28;1.90;;;9.90;99.90;;;;;;5049369;28;20028;-75
2021/11/08 13:30:48;;;;;;;5.65;2.00;;;9.90;99.90;;;;;;5049557;28;20025;-75
2021/11/08 13:33:18;;;;;;;7.35;2.35;;;9.80;99.90;;;;;;5050966;28;20032;-74
2021/11/08 13:35:45;;;;;;;6.88;2.45;;;9.80;99.90;;;;;;5050994;28;20027;-75
2021/11/08 13:38:19;;;;;;;4.47;2.35;;;9.90;99.90;;;;;;5042363;28;20028;-75
2021/11/08 13:40:56;;;;;;;5.75;2.33;;;9.80;99.90;;;;;;5052146;28;20060;-74
2021/11/08 13:43:53;;;;;;;7.65;2.30;;;9.80;99.90;;;;;;5050164;28;20025;-74
2021/11/08 13:46:20;;;;;;;4.82;1.75;;;9.80;99.90;;;;;;5027692;28;20106;-75
2021/11/08 13:48:52;;;;;;;4.80;2.40;;;9.80;99.90;;;;;;5050142;28;20025;-74
2021/11/08 13:51:30;;;;;;;6.90;2.42;;;9.90;99.90;;;;;;5050240;28;20070;-74
2021/11/08 13:54:04;;;;;;;8.88;2.20;;;9.80;99.90;;;;;;5050251;28;20039;-74
2021/11/08 13:56:34;;;;;;;5.53;1.83;;;9.80;99.90;;;;;;5042761;28;20033;-75
2021/11/08 13:59:03;;;;;;;5.63;2.22;;;9.90;99.90;;;;;;5051264;28;20025;-74
2021/11/08 14:01:31;;;;;;;8.15;2.45;;;9.90;99.90;;;;;;5050517;28;20039;-75
2021/11/08 14:03:57;;;;;;;9.80;2.70;;;9.90;99.90;;;;;;5050410;28;20107;-74
2021/11/08 14:06:43;;;;;;;5.05;2.10;;;9.90;99.90;;;;;;5049728;28;20025;-75
2021/11/08 14:09:18;;;;;;;7.97;2.42;;;10.00;99.90;;;;;;5049554;28;20056;-75
2021/11/08 14:11:45;;;;;;;6.32;1.95;;;9.90;99.90;;;;;;5041036;28;20021;-75
2021/11/08 14:14:14;;;;;;;5.15;1.73;;;9.90;99.90;;;;;;5051246;28;20025;-75
2021/11/08 14:16:43;;;;;;;6.25;2.10;;;9.80;99.90;;;;;;5049867;28;20029;-75
2021/11/08 14:19:10;;;;;;;8.15;2.10;;;9.80;99.90;;;;;;5039371;28;20116;-75
2021/11/08 14:24:56;;;;;;;5.93;1.90;;;9.90;99.90;;;;;;4982700;28;20087;-75
2021/11/08 14:27:27;;;;;;;4.40;2.10;;;9.90;99.90;;;;;;4978911;28;20512;-75
2021/11/08 14:29:53;;;;;;;7.17;2.70;;;9.90;99.90;;;;;;4977340;28;20126;-75
2021/11/08 14:32:26;;;;;;;6.22;2.58;;;9.90;99.90;;;;;;4979940;28;20408;-75
2021/11/08 14:35:17;;;;;;;8.40;3.03;;;9.90;99.90;;;;;;4980429;28;20525;-73